Time;durP1;ratioP1;P1;durP2;ratioP2;P2;SDS_P1;SDS_P2;PMS_P1;PMS_P2;Temp;Humidity;BMP_temperature;BMP_pressure;BME280_temperature;BME280_humidity;BME280_pressure;Samples;Min_cycle;Max_cycle;Signal;HPM_P1;HPM_P2
2023/08/07 00:00:22;;;;;;;8.52;1.90;;;17.30;99.90;;;;;;5057313;28;20378;-76
2023/08/07 00:02:48;;;;;;;8.43;2.20;;;17.40;99.90;;;;;;5059247;28;20043;-76
2023/08/07 00:05:16;;;;;;;6.80;2.30;;;17.40;99.90;;;;;;5057249;28;20440;-76
2023/08/07 00:07:42;;;;;;;5.30;2.00;;;17.30;99.90;;;;;;5058395;28;20041;-76
2023/08/07 00:10:08;;;;;;;6.53;2.13;;;17.30;99.90;;;;;;5055750;28;20108;-76
2023/08/07 00:12:34;;;;;;;5.93;2.00;;;17.30;99.90;;;;;;5058684;28;20079;-75
2023/08/07 00:15:00;;;;;;;6.45;2.40;;;17.20;99.90;;;;;;5056045;28;20029;-77
2023/08/07 00:17:26;;;;;;;6.82;2.42;;;17.10;99.90;;;;;;5059638;28;20103;-77
2023/08/07 00:19:52;;;;;;;6.57;2.08;;;17.10;99.90;;;;;;5057346;28;20021;-76
2023/08/07 00:22:17;;;;;;;5.07;2.45;;;17.00;99.90;;;;;;5057935;28;20025;-76
2023/08/07 00:24:43;;;;;;;9.13;2.63;;;17.00;99.90;;;;;;5056436;28;20114;-77
2023/08/07 00:27:10;;;;;;;4.70;2.20;;;17.00;99.90;;;;;;5057711;28;20500;-75
2023/08/07 00:29:36;;;;;;;5.00;2.22;;;17.00;99.90;;;;;;5043433;28;20641;-76
2023/08/07 00:32:02;;;;;;;3.53;1.95;;;16.90;99.90;;;;;;5050918;28;20025;-76
2023/08/07 00:34:28;;;;;;;5.38;2.20;;;16.90;99.90;;;;;;5050985;28;20053;-76
2023/08/07 00:36:54;;;;;;;5.70;2.38;;;16.90;99.90;;;;;;5061369;28;20025;-76
2023/08/07 00:39:20;;;;;;;5.95;2.10;;;16.90;99.90;;;;;;5059161;28;20508;-76
2023/08/07 00:41:45;;;;;;;6.93;2.40;;;16.80;99.90;;;;;;5061479;28;20455;-76
2023/08/07 00:44:11;;;;;;;3.90;2.03;;;16.70;99.90;;;;;;5060375;28;20025;-76
2023/08/07 00:46:39;;;;;;;3.70;2.20;;;16.70;99.90;;;;;;5061580;28;20384;-76
2023/08/07 00:49:05;;;;;;;8.25;2.25;;;16.70;99.90;;;;;;5060431;28;20872;-76
2023/08/07 00:51:31;;;;;;;9.10;2.72;;;16.60;99.90;;;;;;5046911;28;20252;-76
2023/08/07 00:53:58;;;;;;;5.18;2.05;;;16.60;99.90;;;;;;5058450;28;20059;-77
2023/08/07 00:56:25;;;;;;;5.15;2.30;;;16.60;99.90;;;;;;5061302;28;20400;-76
2023/08/07 00:58:51;;;;;;;6.28;2.10;;;16.50;99.90;;;;;;5060017;28;20084;-76
2023/08/07 01:01:17;;;;;;;9.25;2.40;;;16.50;99.90;;;;;;5061596;28;20468;-78
2023/08/07 01:03:42;;;;;;;4.90;2.30;;;16.40;99.90;;;;;;5060761;28;20403;-76
2023/08/07 01:06:08;;;;;;;5.88;2.17;;;16.40;99.90;;;;;;5061912;28;20057;-77
2023/08/07 01:08:34;;;;;;;5.40;2.00;;;16.40;99.90;;;;;;5058922;28;20029;-77
2023/08/07 01:11:08;;;;;;;4.35;1.98;;;16.30;99.90;;;;;;5059789;28;20505;-77
2023/08/07 01:14:08;;;;;;;3.78;2.10;;;16.30;99.90;;;;;;5059813;28;20032;-77
2023/08/07 01:16:46;;;;;;;5.78;2.10;;;16.30;99.90;;;;;;5052010;28;20028;-77
2023/08/07 01:19:23;;;;;;;4.22;2.00;;;16.30;99.90;;;;;;5046964;28;20394;-77
2023/08/07 01:21:49;;;;;;;4.18;2.05;;;16.20;99.90;;;;;;5060678;28;20049;-76
2023/08/07 01:24:15;;;;;;;6.22;2.40;;;16.20;99.90;;;;;;5059688;28;20052;-76
2023/08/07 01:26:44;;;;;;;5.72;2.38;;;16.20;99.90;;;;;;5060039;28;20033;-74
2023/08/07 01:29:26;;;;;;;3.50;1.83;;;16.10;99.90;;;;;;5068988;28;20084;-76
2023/08/07 01:31:55;;;;;;;6.65;2.40;;;16.10;99.90;;;;;;5064818;28;20092;-77
2023/08/07 01:34:24;;;;;;;4.13;2.10;;;16.10;99.90;;;;;;5074961;28;20035;-76
2023/08/07 01:36:51;;;;;;;5.32;2.35;;;16.00;99.90;;;;;;5070855;28;20108;-76
2023/08/07 01:39:18;;;;;;;7.35;2.30;;;16.00;99.90;;;;;;5061867;28;20029;-76
2023/08/07 01:41:45;;;;;;;4.55;1.95;;;16.00;99.90;;;;;;5062063;28;20042;-76
2023/08/07 01:44:10;;;;;;;6.25;2.60;;;15.90;99.90;;;;;;5059820;28;20025;-76
2023/08/07 01:46:36;;;;;;;4.45;2.17;;;15.90;99.90;;;;;;5059509;28;20076;-76
2023/08/07 01:49:02;;;;;;;6.20;2.08;;;15.90;99.90;;;;;;5058260;28;20029;-76
2023/08/07 01:51:27;;;;;;;3.97;2.00;;;15.80;99.90;;;;;;5058800;28;20048;-76
2023/08/07 01:53:53;;;;;;;3.95;1.95;;;15.80;99.90;;;;;;5058368;28;20108;-76
2023/08/07 01:56:19;;;;;;;6.35;2.05;;;15.70;99.90;;;;;;5059473;28;20021;-77
2023/08/07 01:58:44;;;;;;;7.60;2.20;;;15.70;99.90;;;;;;5058307;28;20064;-76
2023/08/07 02:01:10;;;;;;;6.60;2.67;;;15.70;99.90;;;;;;5057690;28;20048;-76
2023/08/07 02:03:35;;;;;;;4.70;2.25;;;15.60;99.90;;;;;;5067626;28;20020;-77
2023/08/07 02:06:01;;;;;;;6.50;2.33;;;15.60;99.90;;;;;;5067156;28;20021;-76
2023/08/07 02:08:27;;;;;;;7.53;2.25;;;15.60;99.90;;;;;;5059386;28;20033;-76
2023/08/07 02:10:53;;;;;;;6.85;2.15;;;15.60;99.90;;;;;;5066100;28;20028;-77
2023/08/07 02:13:19;;;;;;;3.25;2.30;;;15.60;99.90;;;;;;5067522;28;20101;-77
2023/08/07 02:15:44;;;;;;;3.58;2.20;;;15.50;99.90;;;;;;5066716;28;20535;-77
2023/08/07 02:18:10;;;;;;;4.68;2.33;;;15.50;99.90;;;;;;5066805;28;20030;-75
2023/08/07 02:20:35;;;;;;;3.60;2.60;;;15.50;99.90;;;;;;5059280;28;20411;-76
2023/08/07 02:23:01;;;;;;;7.15;2.33;;;15.50;99.90;;;;;;5063100;28;20543;-75
2023/08/07 02:25:27;;;;;;;7.18;2.35;;;15.40;99.90;;;;;;5066024;28;20106;-75
2023/08/07 02:27:52;;;;;;;6.47;2.33;;;15.40;99.90;;;;;;5066398;28;20052;-76
2023/08/07 02:30:18;;;;;;;5.82;2.13;;;15.40;99.90;;;;;;5066104;28;20025;-76
2023/08/07 02:32:44;;;;;;;5.00;2.30;;;15.30;99.90;;;;;;5074846;28;20024;-76
2023/08/07 02:35:11;;;;;;;5.55;2.45;;;15.30;99.90;;;;;;5070874;28;20067;-76
2023/08/07 02:37:36;;;;;;;4.95;2.38;;;15.30;99.90;;;;;;5066632;28;20031;-75
2023/08/07 02:40:02;;;;;;;5.68;2.67;;;15.30;99.90;;;;;;5073758;28;20489;-75
2023/08/07 02:42:28;;;;;;;6.15;2.38;;;15.20;99.90;;;;;;5073668;28;20563;-75
2023/08/07 02:44:53;;;;;;;5.25;2.28;;;15.20;99.90;;;;;;5073243;28;20088;-76
2023/08/07 02:47:19;;;;;;;7.78;2.10;;;15.10;99.90;;;;;;5074765;28;20082;-76
2023/08/07 02:49:45;;;;;;;8.07;2.38;;;15.10;99.90;;;;;;5067798;28;20162;-76
2023/08/07 02:52:10;;;;;;;4.82;2.28;;;15.10;99.90;;;;;;5070865;28;20021;-75
2023/08/07 02:54:36;;;;;;;2.53;1.90;;;15.10;99.90;;;;;;5068512;28;20037;-76
2023/08/07 02:57:01;;;;;;;2.38;2.08;;;15.10;99.90;;;;;;5069716;28;20546;-75
2023/08/07 02:59:27;;;;;;;11.57;2.40;;;15.10;99.90;;;;;;5067340;28;20055;-76
2023/08/07 03:01:53;;;;;;;3.72;2.40;;;15.00;99.90;;;;;;5069396;28;20384;-75
2023/08/07 03:04:18;;;;;;;4.88;2.40;;;15.00;99.90;;;;;;5066959;28;20401;-75
2023/08/07 03:06:44;;;;;;;8.48;3.28;;;15.00;99.90;;;;;;5056905;28;20029;-75
2023/08/07 03:09:10;;;;;;;3.50;2.20;;;15.00;99.90;;;;;;5058199;28;20032;-75
2023/08/07 03:11:36;;;;;;;4.75;2.42;;;15.00;99.90;;;;;;5056966;28;20029;-75
2023/08/07 03:14:03;;;;;;;5.20;2.10;;;14.90;99.90;;;;;;5057894;28;20036;-74
2023/08/07 03:16:28;;;;;;;3.92;2.13;;;14.90;99.90;;;;;;5057627;28;20021;-76
2023/08/07 03:18:54;;;;;;;8.70;2.10;;;14.80;99.90;;;;;;5058086;28;20035;-75
2023/08/07 03:21:19;;;;;;;4.25;2.10;;;14.80;99.90;;;;;;5056387;28;20025;-75
2023/08/07 03:23:45;;;;;;;2.80;1.88;;;14.80;99.90;;;;;;5058974;28;20067;-74
2023/08/07 03:26:12;;;;;;;4.90;2.20;;;14.80;99.90;;;;;;5057383;28;20032;-74
2023/08/07 03:28:38;;;;;;;7.85;2.45;;;14.70;99.90;;;;;;5057430;28;20029;-74
2023/08/07 03:31:04;;;;;;;4.72;2.40;;;14.70;99.90;;;;;;5057310;28;20489;-74
2023/08/07 03:33:30;;;;;;;6.72;2.30;;;14.70;99.90;;;;;;5058532;28;20082;-75
2023/08/07 03:35:55;;;;;;;5.07;2.33;;;14.70;99.90;;;;;;5057056;28;20028;-75
2023/08/07 03:38:21;;;;;;;7.60;2.58;;;14.70;99.90;;;;;;5057780;28;20112;-76
2023/08/07 03:40:47;;;;;;;5.40;2.28;;;14.70;99.90;;;;;;5056795;28;20505;-75
2023/08/07 03:43:12;;;;;;;7.63;2.50;;;14.60;99.90;;;;;;5060335;28;20056;-76
2023/08/07 03:45:39;;;;;;;5.43;2.33;;;14.60;99.90;;;;;;5063926;28;20033;-76
2023/08/07 03:48:04;;;;;;;5.30;3.13;;;14.60;99.90;;;;;;5064639;28;20031;-76
2023/08/07 03:50:30;;;;;;;5.20;2.25;;;14.60;99.90;;;;;;5070941;28;20084;-75
2023/08/07 03:52:56;;;;;;;5.68;2.25;;;14.50;99.90;;;;;;5059853;28;20086;-75
2023/08/07 03:55:22;;;;;;;5.85;2.42;;;14.50;99.90;;;;;;5056750;28;20028;-75
2023/08/07 03:57:47;;;;;;;4.68;2.45;;;14.40;99.90;;;;;;5058112;28;20017;-75
2023/08/07 04:00:14;;;;;;;5.75;2.60;;;14.40;99.90;;;;;;5063220;28;20028;-74
2023/08/07 04:02:40;;;;;;;3.40;2.40;;;14.40;99.90;;;;;;5070826;28;20048;-74
2023/08/07 04:05:06;;;;;;;5.35;2.70;;;14.40;99.90;;;;;;5072964;28;20025;-74
2023/08/07 04:07:32;;;;;;;6.80;2.55;;;14.30;99.90;;;;;;5069981;28;20036;-76
2023/08/07 04:09:57;;;;;;;6.50;2.38;;;14.30;99.90;;;;;;5076464;28;20035;-76
2023/08/07 04:12:23;;;;;;;3.72;2.55;;;14.20;99.90;;;;;;5072856;28;20489;-76
2023/08/07 04:14:48;;;;;;;6.18;2.50;;;14.20;99.90;;;;;;5077320;28;20035;-76
2023/08/07 04:17:14;;;;;;;11.85;3.00;;;14.20;99.90;;;;;;5073919;28;20051;-76
2023/08/07 04:19:40;;;;;;;9.85;2.40;;;14.10;99.90;;;;;;5068432;28;20036;-75
2023/08/07 04:22:05;;;;;;;5.03;2.38;;;14.10;99.90;;;;;;5071137;28;20097;-75
2023/08/07 04:24:31;;;;;;;3.20;2.40;;;14.10;99.90;;;;;;5075517;28;20123;-76
2023/08/07 04:26:56;;;;;;;6.60;2.58;;;14.00;99.90;;;;;;5065527;28;20101;-77
2023/08/07 04:29:23;;;;;;;6.75;2.30;;;14.00;99.90;;;;;;5061324;28;20025;-75
2023/08/07 04:31:49;;;;;;;6.68;2.67;;;14.00;99.90;;;;;;5063706;28;20466;-76
2023/08/07 04:34:15;;;;;;;3.83;2.25;;;14.00;99.90;;;;;;5068943;28;20099;-76
2023/08/07 04:36:40;;;;;;;3.40;2.42;;;13.90;99.90;;;;;;5074601;28;20182;-76
2023/08/07 04:39:07;;;;;;;5.22;2.50;;;13.90;99.90;;;;;;5077903;28;20408;-77
2023/08/07 04:41:32;;;;;;;7.18;2.35;;;14.00;99.90;;;;;;5076773;28;20029;-76
2023/08/07 04:43:58;;;;;;;6.55;2.40;;;13.90;99.90;;;;;;5078086;28;20020;-76
2023/08/07 04:46:24;;;;;;;7.18;2.70;;;13.90;99.90;;;;;;5077030;28;20106;-77
2023/08/07 04:48:49;;;;;;;4.28;2.38;;;13.90;99.90;;;;;;5078025;28;20028;-76
2023/08/07 04:51:15;;;;;;;8.30;2.63;;;13.90;99.90;;;;;;5075583;28;20093;-76
2023/08/07 04:53:41;;;;;;;5.70;2.85;;;13.80;99.90;;;;;;5062422;28;20530;-77
2023/08/07 04:56:06;;;;;;;5.60;2.50;;;13.80;99.90;;;;;;5067491;28;20751;-75
2023/08/07 04:58:32;;;;;;;5.72;2.47;;;13.80;99.90;;;;;;5063632;28;20029;-75
2023/08/07 05:00:58;;;;;;;6.15;2.65;;;13.90;99.90;;;;;;5066848;28;20048;-77
2023/08/07 05:03:24;;;;;;;9.45;3.05;;;13.90;99.90;;;;;;5063061;28;20029;-76
2023/08/07 05:05:50;;;;;;;10.27;2.75;;;13.90;99.90;;;;;;5067130;28;20016;-75
2023/08/07 05:08:16;;;;;;;6.95;2.45;;;13.90;99.90;;;;;;5063263;28;20101;-75
2023/08/07 05:10:42;;;;;;;8.43;2.80;;;13.90;99.90;;;;;;5066397;28;20021;-76
2023/08/07 05:13:08;;;;;;;4.22;2.10;;;14.00;99.90;;;;;;5062285;28;20031;-76
2023/08/07 05:15:33;;;;;;;5.18;2.42;;;14.00;99.90;;;;;;5067242;28;20052;-76
2023/08/07 05:17:59;;;;;;;5.60;2.97;;;14.10;99.90;;;;;;5064457;28;20033;-75
2023/08/07 05:20:25;;;;;;;6.93;2.65;;;14.10;99.90;;;;;;5063235;28;20033;-76
2023/08/07 05:22:50;;;;;;;7.15;2.58;;;14.20;99.90;;;;;;5053070;28;20130;-74
2023/08/07 05:25:16;;;;;;;7.55;2.65;;;14.20;99.90;;;;;;5068839;28;20029;-75
2023/08/07 05:27:43;;;;;;;10.73;2.72;;;14.30;99.90;;;;;;5061151;28;20068;-75
2023/08/07 05:30:09;;;;;;;8.60;2.50;;;14.40;99.90;;;;;;5049618;28;20017;-75
2023/08/07 05:32:39;;;;;;;7.85;2.72;;;14.40;99.90;;;;;;5061681;28;20056;-75
2023/08/07 05:35:06;;;;;;;5.45;2.10;;;14.40;99.90;;;;;;5066975;28;20028;-75
2023/08/07 05:37:32;;;;;;;6.00;2.35;;;14.50;99.90;;;;;;5062863;28;20494;-75
2023/08/07 05:39:58;;;;;;;6.55;2.85;;;14.50;99.90;;;;;;5066925;28;20020;-75
2023/08/07 05:42:24;;;;;;;6.28;2.67;;;14.50;99.90;;;;;;5063438;28;20081;-76
2023/08/07 05:44:50;;;;;;;3.85;2.35;;;14.50;99.90;;;;;;5065906;28;20694;-74
2023/08/07 05:47:15;;;;;;;5.03;2.45;;;14.60;99.90;;;;;;5062930;28;20032;-74
2023/08/07 05:49:41;;;;;;;8.77;2.38;;;14.60;99.90;;;;;;5062424;28;20025;-74
2023/08/07 05:52:07;;;;;;;4.18;2.80;;;14.60;99.90;;;;;;5062798;28;20033;-75
2023/08/07 05:54:33;;;;;;;7.13;2.30;;;14.70;99.90;;;;;;5066643;28;20056;-75
2023/08/07 05:56:58;;;;;;;5.25;2.72;;;14.70;99.90;;;;;;5062737;28;20036;-74
2023/08/07 05:59:24;;;;;;;6.15;2.60;;;14.70;99.90;;;;;;5066620;28;20028;-75
2023/08/07 06:01:51;;;;;;;7.65;2.83;;;14.70;99.90;;;;;;5061354;28;20029;-75
2023/08/07 06:04:16;;;;;;;8.13;2.75;;;14.80;99.90;;;;;;5067077;28;20033;-75
2023/08/07 06:06:42;;;;;;;6.63;2.58;;;14.90;99.90;;;;;;5062545;28;20075;-73
2023/08/07 06:09:08;;;;;;;5.47;2.42;;;14.90;99.90;;;;;;5066997;28;20052;-74
2023/08/07 06:11:34;;;;;;;4.63;2.78;;;15.00;99.90;;;;;;5063198;28;20033;-73
2023/08/07 06:14:00;;;;;;;4.78;2.38;;;15.00;99.90;;;;;;5066176;28;20024;-75
2023/08/07 06:16:25;;;;;;;6.75;2.92;;;15.10;99.90;;;;;;5062645;28;20176;-74
2023/08/07 06:18:51;;;;;;;5.85;2.65;;;15.10;99.90;;;;;;5065619;28;20024;-75
2023/08/07 06:21:17;;;;;;;9.77;3.83;;;15.10;99.90;;;;;;5049768;28;20075;-74
2023/08/07 06:23:43;;;;;;;7.80;2.35;;;15.20;99.90;;;;;;5064577;28;20048;-74
2023/08/07 06:26:08;;;;;;;9.52;2.80;;;15.20;99.90;;;;;;5061835;28;20040;-74
2023/08/07 06:28:36;;;;;;;6.35;2.65;;;15.30;99.90;;;;;;5058235;28;20036;-73
2023/08/07 06:31:07;;;;;;;10.40;2.92;;;15.40;99.90;;;;;;5052825;28;20409;-75
2023/08/07 06:33:33;;;;;;;5.15;1.83;;;15.40;99.90;;;;;;5062466;28;20029;-73
2023/08/07 06:35:59;;;;;;;7.00;3.38;;;15.50;99.90;;;;;;5060909;28;20025;-73
2023/08/07 06:38:25;;;;;;;8.27;2.55;;;15.60;99.90;;;;;;5063027;28;20070;-73
2023/08/07 06:40:51;;;;;;;3.75;2.22;;;15.70;99.90;;;;;;5059807;28;20025;-72
2023/08/07 06:43:16;;;;;;;11.35;2.45;;;15.80;99.90;;;;;;5063092;28;20186;-74
2023/08/07 06:45:42;;;;;;;8.13;2.38;;;15.80;99.90;;;;;;5060207;28;20062;-75
2023/08/07 06:48:08;;;;;;;7.18;2.88;;;15.80;99.90;;;;;;5057022;28;20028;-76
2023/08/07 06:50:33;;;;;;;4.07;2.05;;;15.90;99.90;;;;;;5058863;28;20040;-81
2023/08/07 06:52:59;;;;;;;4.95;2.17;;;16.00;99.90;;;;;;5070869;28;20067;-78
2023/08/07 06:55:26;;;;;;;6.85;1.95;;;16.00;99.90;;;;;;5069257;28;20437;-79
2023/08/07 06:57:52;;;;;;;6.45;2.17;;;16.00;99.90;;;;;;5073502;28;20118;-79
2023/08/07 07:00:17;;;;;;;4.78;2.25;;;16.00;99.90;;;;;;5066719;28;20056;-77
2023/08/07 07:02:43;;;;;;;5.18;2.22;;;16.00;99.90;;;;;;5063659;28;20035;-81
2023/08/07 07:05:09;;;;;;;5.95;2.10;;;16.00;99.90;;;;;;5061069;28;20065;-77
2023/08/07 07:07:35;;;;;;;7.22;2.10;;;16.00;99.90;;;;;;5063608;28;20020;-77
2023/08/07 07:10:01;;;;;;;5.50;2.42;;;16.10;99.90;;;;;;5056910;28;20033;-85
2023/08/07 07:12:29;;;;;;;8.73;2.22;;;16.20;99.90;;;;;;5054320;28;20037;-81
2023/08/07 07:14:55;;;;;;;4.80;2.50;;;16.30;99.90;;;;;;5048678;28;20104;-77
2023/08/07 07:17:21;;;;;;;7.82;2.08;;;16.40;99.90;;;;;;5057621;28;20138;-78
2023/08/07 07:19:46;;;;;;;4.90;2.47;;;16.50;99.90;;;;;;5057159;28;20033;-79
2023/08/07 07:22:12;;;;;;;7.75;2.30;;;16.60;99.90;;;;;;5057313;28;20447;-78
2023/08/07 07:24:38;;;;;;;5.95;2.45;;;16.70;99.90;;;;;;5059656;28;20059;-78
2023/08/07 07:27:04;;;;;;;6.53;2.33;;;16.80;99.90;;;;;;5065806;28;20079;-78
2023/08/07 07:29:30;;;;;;;8.50;2.30;;;16.90;99.90;;;;;;5066932;28;20467;-81
2023/08/07 07:31:56;;;;;;;6.00;1.90;;;17.00;99.90;;;;;;5065099;28;20033;-78
2023/08/07 07:34:22;;;;;;;8.77;2.67;;;17.00;99.90;;;;;;5071664;28;20154;-76
2023/08/07 07:36:47;;;;;;;6.13;2.00;;;17.10;99.90;;;;;;5068286;28;20025;-78
2023/08/07 07:39:13;;;;;;;5.95;2.42;;;17.20;99.90;;;;;;5063973;28;20036;-77
2023/08/07 07:41:38;;;;;;;4.43;1.90;;;17.40;99.90;;;;;;5064767;28;20083;-80
2023/08/07 07:44:04;;;;;;;3.85;1.80;;;17.60;99.90;;;;;;5070649;28;20028;-81
2023/08/07 07:46:31;;;;;;;5.85;2.53;;;17.60;99.90;;;;;;5069821;28;20087;-81
2023/08/07 07:48:57;;;;;;;8.38;2.08;;;17.80;99.90;;;;;;5072810;28;20055;-80
2023/08/07 07:51:23;;;;;;;2.63;1.80;;;17.90;99.90;;;;;;5069090;28;20033;-81
2023/08/07 07:53:49;;;;;;;9.70;2.00;;;18.10;99.90;;;;;;5062746;28;20025;-83
2023/08/07 07:56:14;;;;;;;5.03;2.22;;;18.10;99.90;;;;;;5056478;28;20039;-82
2023/08/07 07:58:40;;;;;;;4.65;1.98;;;18.10;99.90;;;;;;5067053;28;20013;-79
2023/08/07 08:01:07;;;;;;;7.45;2.00;;;18.10;99.90;;;;;;5065102;28;20035;-79
2023/08/07 08:03:33;;;;;;;4.13;1.75;;;18.20;99.90;;;;;;5066962;28;20020;-80
2023/08/07 08:05:59;;;;;;;4.05;2.63;;;18.50;99.90;;;;;;5066135;28;20029;-84
2023/08/07 08:08:25;;;;;;;5.40;2.22;;;18.60;99.90;;;;;;5045258;28;20040;-80
2023/08/07 08:10:51;;;;;;;5.93;2.00;;;18.60;99.90;;;;;;5067322;28;20025;-81
2023/08/07 08:13:17;;;;;;;4.15;1.70;;;18.90;99.90;;;;;;5072926;28;20035;-86
2023/08/07 08:15:44;;;;;;;5.28;1.77;;;19.00;99.90;;;;;;5065941;28;20443;-83
2023/08/07 08:18:09;;;;;;;8.15;2.22;;;19.10;99.90;;;;;;5070952;28;20492;-81
2023/08/07 08:20:35;;;;;;;3.60;1.80;;;18.90;99.90;;;;;;5069382;28;20034;-83
2023/08/07 08:23:01;;;;;;;7.88;2.00;;;19.00;99.90;;;;;;5073990;28;20090;-82
2023/08/07 08:25:27;;;;;;;5.40;2.03;;;19.00;99.90;;;;;;5070419;28;20029;-83
2023/08/07 08:27:52;;;;;;;6.40;2.00;;;19.00;99.90;;;;;;5070633;28;20388;-81
2023/08/07 08:30:18;;;;;;;5.38;2.10;;;19.00;99.90;;;;;;5069525;28;20033;-84
2023/08/07 08:32:44;;;;;;;3.42;2.05;;;19.00;99.90;;;;;;5070946;28;20032;-80
2023/08/07 08:35:09;;;;;;;4.85;1.90;;;18.90;99.90;;;;;;5068186;28;20057;-80
2023/08/07 08:37:35;;;;;;;6.65;1.90;;;18.90;99.90;;;;;;5067798;28;20052;-82
2023/08/07 08:40:01;;;;;;;6.70;2.25;;;18.90;99.90;;;;;;5067945;28;20029;-81
2023/08/07 08:42:27;;;;;;;3.83;1.70;;;18.90;99.90;;;;;;5056550;28;20024;-81
2023/08/07 08:44:57;;;;;;;5.22;1.80;;;19.10;99.90;;;;;;5060627;28;21313;-81
2023/08/07 08:47:24;;;;;;;7.55;2.13;;;19.40;99.90;;;;;;5057437;28;20025;-83
2023/08/07 08:49:58;;;;;;;3.45;1.90;;;19.40;99.90;;;;;;5067899;28;20035;-83
2023/08/07 08:52:25;;;;;;;5.28;1.63;;;19.30;99.90;;;;;;5047501;28;20024;-77
2023/08/07 08:54:51;;;;;;;4.45;2.03;;;19.20;99.90;;;;;;5065809;28;20033;-79
2023/08/07 08:57:17;;;;;;;4.03;1.65;;;19.20;99.90;;;;;;5074781;28;20046;-77
2023/08/07 08:59:44;;;;;;;5.70;1.95;;;19.20;99.90;;;;;;5061291;28;20017;-77
2023/08/07 09:02:10;;;;;;;6.60;2.00;;;19.30;99.90;;;;;;5059660;28;20029;-76
2023/08/07 09:04:36;;;;;;;4.40;1.98;;;19.80;99.90;;;;;;5059639;28;20028;-77
2023/08/07 09:07:02;;;;;;;4.70;1.98;;;20.20;99.90;;;;;;5067443;28;20031;-77
2023/08/07 09:09:28;;;;;;;7.55;2.50;;;20.50;99.90;;;;;;5073319;28;20104;-78
2023/08/07 09:11:56;;;;;;;5.03;2.00;;;20.40;99.90;;;;;;5075745;28;20035;-78
2023/08/07 09:14:26;;;;;;;3.63;1.75;;;20.40;99.90;;;;;;5073284;28;20024;-78
2023/08/07 09:16:53;;;;;;;4.13;1.57;;;20.00;99.90;;;;;;5075723;28;20569;-79
2023/08/07 09:19:19;;;;;;;7.03;2.13;;;19.80;99.90;;;;;;5060102;28;20255;-78
2023/08/07 09:21:45;;;;;;;7.90;2.28;;;19.80;99.90;;;;;;5069687;28;20028;-78
2023/08/07 09:24:11;;;;;;;4.93;2.17;;;19.90;99.90;;;;;;5069606;28;20056;-77
2023/08/07 09:26:38;;;;;;;4.00;1.85;;;20.00;99.90;;;;;;5065656;28;20107;-76
2023/08/07 09:29:04;;;;;;;7.05;2.10;;;20.00;99.90;;;;;;5051089;28;20032;-77
2023/08/07 09:31:32;;;;;;;8.32;1.92;;;20.20;99.90;;;;;;5063085;28;20021;-79
2023/08/07 09:34:05;;;;;;;2.85;1.60;;;20.20;99.90;;;;;;5062202;28;20392;-78
2023/08/07 09:36:31;;;;;;;10.55;1.83;;;20.20;99.90;;;;;;5065968;28;20062;-77
2023/08/07 09:39:01;;;;;;;7.60;2.10;;;20.10;99.90;;;;;;5062216;28;20052;-77
2023/08/07 09:41:29;;;;;;;3.33;2.05;;;20.20;99.90;;;;;;5065829;28;20028;-77
2023/08/07 09:43:55;;;;;;;3.22;1.80;;;20.20;99.90;;;;;;5060766;28;20120;-76
2023/08/07 09:46:20;;;;;;;3.88;1.65;;;20.30;99.90;;;;;;5066475;28;20032;-77
2023/08/07 09:48:47;;;;;;;14.90;2.72;;;20.30;99.90;;;;;;5062090;28;20040;-79
2023/08/07 09:51:13;;;;;;;4.50;1.80;;;20.40;99.90;;;;;;5045617;28;20036;-75
2023/08/07 09:53:39;;;;;;;4.82;1.77;;;20.60;99.90;;;;;;5055401;28;20029;-75
2023/08/07 09:56:05;;;;;;;3.53;1.70;;;21.00;99.90;;;;;;5056719;28;20036;-76
2023/08/07 09:58:31;;;;;;;5.57;1.88;;;20.80;99.90;;;;;;5055440;28;20025;-75
2023/08/07 10:01:04;;;;;;;4.15;2.00;;;20.80;99.90;;;;;;5057672;28;20036;-75
2023/08/07 10:03:31;;;;;;;3.90;1.95;;;21.10;99.90;;;;;;5056372;28;20012;-75
2023/08/07 10:05:57;;;;;;;4.60;1.52;;;21.20;99.90;;;;;;5053225;28;20032;-75
2023/08/07 10:08:24;;;;;;;5.35;1.83;;;21.30;99.90;;;;;;5060704;28;20028;-74
2023/08/07 10:10:50;;;;;;;4.50;1.80;;;21.20;99.70;;;;;;5056398;28;20082;-75
2023/08/07 10:13:15;;;;;;;5.00;1.67;;;21.30;99.30;;;;;;5056215;28;20020;-75
2023/08/07 10:15:42;;;;;;;5.07;1.75;;;21.20;99.90;;;;;;5056792;28;20132;-76
2023/08/07 10:18:11;;;;;;;5.75;1.65;;;21.30;99.20;;;;;;5057597;28;20021;-75
2023/08/07 10:20:42;;;;;;;4.07;1.77;;;21.40;99.90;;;;;;5054209;28;20029;-76
2023/08/07 10:23:09;;;;;;;4.85;1.85;;;21.50;99.20;;;;;;5059085;28;20758;-75
2023/08/07 10:25:39;;;;;;;4.75;1.75;;;21.60;99.90;;;;;;5048985;28;20055;-75
2023/08/07 10:28:07;;;;;;;4.50;1.40;;;21.80;99.90;;;;;;5053713;28;20024;-77
2023/08/07 10:30:34;;;;;;;2.90;1.33;;;21.60;97.30;;;;;;5053483;28;20108;-78
2023/08/07 10:33:00;;;;;;;4.80;1.90;;;21.30;97.20;;;;;;5058347;28;20021;-75
2023/08/07 10:35:33;;;;;;;6.55;1.98;;;21.20;96.80;;;;;;5052238;28;20444;-75
2023/08/07 10:38:10;;;;;;;3.20;1.50;;;21.20;97.20;;;;;;5051758;28;20029;-75
2023/08/07 10:40:57;;;;;;;5.05;1.52;;;21.40;98.80;;;;;;5056081;28;20056;-75
2023/08/07 10:43:25;;;;;;;4.63;1.52;;;21.80;97.40;;;;;;5056584;28;20032;-78
2023/08/07 10:45:50;;;;;;;4.80;1.90;;;21.70;97.30;;;;;;5052524;28;20024;-75
2023/08/07 10:48:21;;;;;;;4.72;1.75;;;21.80;98.80;;;;;;5048355;28;20401;-75
2023/08/07 10:51:02;;;;;;;7.18;2.58;;;22.10;98.70;;;;;;5051159;28;20623;-75
2023/08/07 10:53:30;;;;;;;4.22;1.45;;;22.30;98.00;;;;;;5055645;28;20104;-75
2023/08/07 10:55:57;;;;;;;6.95;1.50;;;22.40;98.30;;;;;;5059071;28;20039;-77
2023/08/07 10:58:24;;;;;;;3.97;1.65;;;22.30;95.70;;;;;;5054264;28;20025;-77
2023/08/07 11:01:20;;;;;;;3.60;1.60;;;22.10;96.00;;;;;;5051144;28;20059;-76
2023/08/07 11:04:13;;;;;;;9.30;2.67;;;22.00;95.20;;;;;;5052051;28;20021;-75
2023/08/07 11:06:40;;;;;;;5.35;1.58;;;22.10;95.60;;;;;;5051742;28;20089;-75
2023/08/07 11:09:08;;;;;;;4.85;1.77;;;22.00;94.70;;;;;;5053500;28;20057;-76
2023/08/07 11:11:48;;;;;;;3.15;1.80;;;22.00;94.40;;;;;;5052353;28;20040;-76
2023/08/07 11:14:15;;;;;;;3.30;1.45;;;22.00;94.80;;;;;;5053041;28;20140;-76
2023/08/07 11:16:42;;;;;;;3.05;1.55;;;22.00;95.30;;;;;;5052965;28;20509;-75
2023/08/07 11:19:08;;;;;;;3.47;1.50;;;21.90;95.00;;;;;;5057456;28;20044;-76
2023/08/07 11:21:35;;;;;;;6.15;1.70;;;22.00;96.10;;;;;;5055855;28;20029;-76
2023/08/07 11:24:01;;;;;;;4.88;1.95;;;22.00;95.30;;;;;;5056998;28;20120;-76
2023/08/07 11:26:28;;;;;;;3.08;1.63;;;22.10;95.00;;;;;;5058908;28;20029;-75
2023/08/07 11:28:54;;;;;;;7.22;1.65;;;22.40;95.40;;;;;;5054198;28;20059;-75
2023/08/07 11:31:20;;;;;;;5.72;2.22;;;22.70;94.70;;;;;;5060462;28;20040;-76
2023/08/07 11:33:47;;;;;;;5.22;1.70;;;22.90;94.10;;;;;;5059795;28;20020;-74
2023/08/07 11:36:14;;;;;;;5.82;1.95;;;22.80;93.30;;;;;;5052793;28;20481;-77
2023/08/07 11:38:44;;;;;;;5.60;1.75;;;22.70;92.20;;;;;;5054703;28;20420;-78
2023/08/07 11:41:12;;;;;;;6.47;2.22;;;22.50;92.60;;;;;;5050742;28;20025;-75
2023/08/07 11:43:38;;;;;;;3.10;1.52;;;22.60;94.70;;;;;;5058090;28;20369;-75
2023/08/07 11:46:06;;;;;;;4.10;2.00;;;23.00;93.10;;;;;;5054373;28;20426;-73
2023/08/07 11:48:34;;;;;;;3.80;1.75;;;23.30;92.70;;;;;;5064254;28;20115;-75
2023/08/07 11:51:01;;;;;;;4.25;1.20;;;23.40;93.30;;;;;;5057169;28;20036;-76
2023/08/07 11:53:28;;;;;;;4.03;2.15;;;23.50;92.00;;;;;;5056873;28;20445;-76
2023/08/07 11:55:57;;;;;;;4.40;1.60;;;23.40;91.00;;;;;;5055095;28;20052;-76
2023/08/07 11:58:25;;;;;;;6.50;1.70;;;23.60;91.70;;;;;;5054856;28;20108;-75
2023/08/07 12:00:51;;;;;;;2.83;1.63;;;23.70;92.30;;;;;;5054578;28;20021;-76
2023/08/07 12:03:28;;;;;;;3.28;1.27;;;23.80;91.30;;;;;;5055175;28;20025;-80
2023/08/07 12:05:58;;;;;;;3.13;1.50;;;23.70;90.00;;;;;;5057761;28;20413;-76
2023/08/07 12:08:38;;;;;;;6.50;2.03;;;23.50;90.40;;;;;;5057088;28;20051;-77
2023/08/07 12:11:06;;;;;;;4.87;1.90;;;23.40;90.40;;;;;;5055828;28;20444;-77
2023/08/07 12:13:35;;;;;;;5.88;1.58;;;23.40;90.50;;;;;;5058905;28;20266;-75
2023/08/07 12:16:01;;;;;;;4.13;1.30;;;23.60;91.90;;;;;;5058878;28;20036;-76
2023/08/07 12:18:27;;;;;;;4.18;1.83;;;23.90;92.30;;;;;;5063852;28;20028;-76
2023/08/07 12:20:57;;;;;;;6.78;1.67;;;24.10;89.60;;;;;;5065055;28;20028;-75
2023/08/07 12:23:22;;;;;;;8.43;2.15;;;24.20;91.10;;;;;;5064410;28;20051;-75
2023/08/07 12:25:48;;;;;;;3.67;1.40;;;24.40;91.00;;;;;;5060751;28;20519;-75
2023/08/07 12:28:16;;;;;;;7.10;1.60;;;24.50;88.90;;;;;;5065049;28;20427;-81
2023/08/07 12:30:47;;;;;;;6.38;1.73;;;24.50;88.30;;;;;;5062002;28;20088;-76
2023/08/07 12:33:13;;;;;;;6.90;1.48;;;24.60;88.60;;;;;;5077136;28;20088;-76
2023/08/07 12:35:41;;;;;;;2.78;1.60;;;24.50;86.20;;;;;;5067684;28;20039;-75
2023/08/07 12:38:07;;;;;;;2.30;1.27;;;24.50;88.20;;;;;;5078702;28;20029;-78
2023/08/07 12:40:33;;;;;;;3.92;1.60;;;24.40;82.50;;;;;;5071126;28;20117;-78
2023/08/07 12:42:59;;;;;;;2.83;1.30;;;24.20;84.90;;;;;;5067281;28;20004;-76